| time (UTC) | temp C | wind direction | speed KPH | gust KPH | rain 1hr cm | rain 24hr cm | rain mn cm | humidity % | barometer mb |
| 20260509224549 | 32 | 45 | 0.0 | 1.6 | 0.00 | 0.08 | 0.08 | 51 | 1007.4 |
| 20260509223052 | 33 | 216 | 0.0 | 0.0 | 0.00 | 0.08 | 0.08 | 53 | 1007.5 |
| 20260509221545 | 31 | 105 | 0.0 | 0.0 | 0.00 | 0.08 | 0.08 | 55 | 1007.3 |
| 20260509220043 | 31 | 97 | 0.0 | 1.6 | 0.00 | 0.08 | 0.08 | 59 | 1007.4 |
| 20260509214540 | 30 | 114 | 0.0 | 1.6 | 0.00 | 0.08 | 0.08 | 66 | 1007.6 |
| 20260509213037 | 27 | 315 | 0.0 | 0.0 | 0.00 | 0.08 | 0.08 | 78 | 1007.9 |
| 20260509211536 | 25 | 311 | 0.0 | 1.6 | 0.00 | 0.08 | 0.08 | 81 | 1008.2 |
| 20260509210047 | 23 | 320 | 1.6 | 4.8 | 0.00 | 0.08 | 0.08 | 80 | 1008.3 |
| 20260509204533 | 23 | 337 | 3.2 | 6.4 | 0.00 | 0.08 | 0.08 | 77 | 1008.5 |
| 20260509203031 | 24 | 311 | 3.2 | 11.3 | 0.00 | 0.08 | 0.08 | 74 | 1008.6 |
| 20260509201530 | 27 | 311 | 16.1 | 27.4 | 0.00 | 0.08 | 0.08 | 65 | 1008.9 |
| 20260509200031 | 28 | 306 | 3.2 | 6.4 | 0.00 | 0.08 | 0.08 | 68 | 1008.9 |
| 20260509194529 | 29 | 296 | 1.6 | 8.0 | 0.00 | 0.08 | 0.08 | 64 | 1009.1 |
| 20260509193028 | 30 | 267 | 3.2 | 11.3 | 0.00 | 0.08 | 0.08 | 59 | 1009.0 |
| 20260509191527 | 30 | 294 | 3.2 | 9.7 | 0.00 | 0.08 | 0.08 | 63 | 1009.0 |
| 20260509190021 | 30 | 223 | 6.4 | 12.9 | 0.00 | 0.08 | 0.08 | 69 | 1009.0 |
| 20260509184529 | 29 | 187 | 3.2 | 14.5 | 0.00 | 0.08 | 0.08 | 69 | 1009.5 |
| 20260509183016 | 28 | 282 | 4.8 | 12.9 | 0.00 | 0.08 | 0.08 | 71 | 1009.7 |
| 20260509181514 | 28 | 312 | 1.6 | 8.0 | 0.00 | 0.08 | 0.08 | 73 | 1010.0 |
| 20260509180010 | 28 | 329 | 0.0 | 12.9 | 0.00 | 0.08 | 0.08 | 74 | 1010.0 |
| 20260509174509 | 27 | 303 | 1.6 | 8.0 | 0.00 | 0.08 | 0.08 | 78 | 1010.3 |
| 20260509173022 | 27 | 297 | 1.6 | 12.9 | 0.00 | 0.08 | 0.08 | 78 | 1010.5 |
| 20260509171512 | 26 | 245 | 4.8 | 12.9 | 0.00 | 0.08 | 0.08 | 82 | 1010.5 |
| 20260509170011 | 26 | 266 | 8.0 | 12.9 | 0.00 | 0.08 | 0.08 | 84 | 1010.5 |
| 20260509164502 | 26 | 260 | 4.8 | 12.9 | 0.00 | 0.08 | 0.08 | 85 | 1010.5 |
| 20260509163059 | 25 | 133 | 3.2 | 19.3 | 0.00 | 0.08 | 0.08 | 87 | 1010.5 |
| 20260509161556 | 25 | 225 | 11.3 | 22.5 | 0.00 | 0.08 | 0.08 | 88 | 1010.2 |
| 20260509160052 | 24 | 229 | 12.9 | 22.5 | 0.00 | 0.08 | 0.08 | 89 | 1010.2 |
| 20260509154549 | 23 | 235 | 14.5 | 22.5 | 0.00 | 0.08 | 0.08 | 78 | 1010.4 |
| 20260509153046 | 23 | 209 | 9.7 | 20.9 | 0.00 | 0.08 | 0.08 | 67 | 1010.3 |
| 20260509151555 | 22 | 162 | 8.0 | 16.1 | 0.00 | 0.08 | 0.08 | 66 | 1010.3 |
| 20260509150049 | 22 | 185 | 8.0 | 14.5 | 0.00 | 0.08 | 0.08 | 66 | 1010.2 |
| 20260509144541 | 22 | 177 | 8.0 | 16.1 | 0.00 | 0.08 | 0.08 | 67 | 1010.1 |
| 20260509143052 | 22 | 190 | 8.0 | 16.1 | 0.00 | 0.08 | 0.08 | 66 | 1009.8 |
| 20260509141543 | 22 | 166 | 9.7 | 14.5 | 0.00 | 0.08 | 0.08 | 66 | 1009.8 |
| 20260509140038 | 22 | 153 | 8.0 | 14.5 | 0.00 | 0.08 | 0.08 | 67 | 1010.1 |
| 20260509134541 | 21 | 162 | 4.8 | 8.0 | 0.00 | 0.08 | 0.08 | 67 | 1010.2 |
| 20260509133038 | 21 | 119 | 0.0 | 6.4 | 0.00 | 0.08 | 0.08 | 67 | 1010.4 |
| 20260509131545 | 21 | 114 | 0.0 | 1.6 | 0.00 | 0.08 | 0.08 | 67 | 1010.3 |
| 20260509130056 | 21 | 114 | 0.0 | 0.0 | 0.00 | 0.08 | 0.08 | 68 | 1010.0 |
| 20260509124538 | 21 | 114 | 0.0 | 1.6 | 0.00 | 0.08 | 0.08 | 69 | 1009.8 |
| 20260509123102 | 21 | 301 | 0.0 | 1.6 | 0.00 | 0.08 | 0.08 | 70 | 1009.9 |
| 20260509121539 | 21 | 324 | 4.8 | 9.7 | 0.00 | 0.08 | 0.08 | 70 | 1009.9 |
| 20260509120040 | 21 | 22 | 0.0 | 4.8 | 0.00 | 0.08 | 0.08 | 70 | 1009.9 |
| 20260509114534 | 21 | 359 | 4.8 | 11.3 | 0.03 | 0.08 | 0.08 | 71 | 1010.2 |
| 20260509113031 | 21 | 337 | 4.8 | 8.0 | 0.05 | 0.08 | 0.08 | 71 | 1010.5 |
| 20260509111530 | 21 | 159 | 0.0 | 3.2 | 0.08 | 0.08 | 0.08 | 72 | 1010.5 |
| 20260509110029 | 21 | 268 | 0.0 | 3.2 | 0.08 | 0.08 | 0.08 | 72 | 1010.8 |
| 20260509104529 | 21 | 360 | 0.0 | 1.6 | 0.03 | 0.03 | 0.03 | 73 | 1011.0 |
| 20260509103027 | 21 | 360 | 0.0 | 6.4 | 0.03 | 0.03 | 0.03 | 74 | 1010.9 |
| 20260509101535 | 21 | 2 | 4.8 | 8.0 | 0.00 | 0.00 | 0.00 | 75 | 1010.8 |
| 20260509100023 | 21 | 213 | 1.6 | 4.8 | 0.00 | 0.00 | 0.00 | 77 | 1010.2 |
| 20260509094530 | 21 | 213 | 0.0 | 4.8 | 0.00 | 0.00 | 0.00 | 79 | 1009.5 |
| 20260509093021 | 22 | 211 | 0.0 | 0.0 | 0.00 | 0.00 | 0.00 | 80 | 1009.6 |
| 20260509091520 | 22 | 211 | 0.0 | 0.0 | 0.00 | 0.00 | 0.00 | 81 | 1009.5 |
| 20260509090019 | 22 | 211 | 0.0 | 0.0 | 0.00 | 0.00 | 0.00 | 82 | 1009.6 |
| 20260509084519 | 22 | 211 | 0.0 | 0.0 | 0.00 | 0.00 | 0.00 | 82 | 1009.7 |
| 20260509083017 | 22 | 211 | 0.0 | 0.0 | 0.00 | 0.00 | 0.00 | 83 | 1010.0 |
| 20260509081517 | 22 | 211 | 0.0 | 0.0 | 0.00 | 0.00 | 0.00 | 84 | 1010.2 |
| 20260509080016 | 22 | 211 | 0.0 | 0.0 | 0.00 | 0.00 | 0.00 | 85 | 1010.2 |
| 20260509074514 | 22 | 211 | 0.0 | 0.0 | 0.00 | 0.00 | 0.00 | 85 | 1010.4 |
| 20260509073014 | 22 | 211 | 0.0 | 4.8 | 0.00 | 0.00 | 0.00 | 86 | 1010.4 |
| 20260509071511 | 22 | 128 | 0.0 | 4.8 | 0.00 | 0.00 | 0.00 | 86 | 1010.3 |
| 20260509070005 | 22 | 145 | 1.6 | 8.0 | 0.00 | 0.00 | 0.00 | 86 | 1010.0 |
| 20260509064501 | 22 | 157 | 3.2 | 12.9 | 0.00 | 0.00 | 0.00 | 87 | 1010.2 |
| 20260509063057 | 22 | 133 | 1.6 | 6.4 | 0.00 | 0.00 | 0.00 | 87 | 1009.9 |
| 20260509061606 | 22 | 136 | 3.2 | 8.0 | 0.00 | 0.00 | 0.00 | 87 | 1009.8 |
| 20260509060054 | 22 | 135 | 8.0 | 16.1 | 0.00 | 0.00 | 0.00 | 88 | 1010.1 |
| 20260509054609 | 22 | 153 | 6.4 | 14.5 | 0.00 | 0.00 | 0.00 | 88 | 1009.8 |
| 20260509053056 | 22 | 159 | 3.2 | 9.7 | 0.00 | 0.00 | 0.00 | 88 | 1009.7 |
| 20260509051549 | 22 | 165 | 8.0 | 16.1 | 0.00 | 0.00 | 0.00 | 89 | 1009.6 |
| 20260509050043 | 22 | 125 | 9.7 | 16.1 | 0.00 | 0.00 | 0.00 | 89 | 1009.5 |
| 20260509044543 | 21 | 121 | 6.4 | 9.7 | 0.00 | 0.00 | 0.00 | 89 | 1009.6 |
| 20260509043042 | 21 | 131 | 0.0 | 0.0 | 0.00 | 0.00 | 0.00 | 89 | 1009.7 |
| 20260509041543 | 22 | 157 | 1.6 | 6.4 | 0.00 | 0.00 | 0.00 | 89 | 1009.7 |
| 20260509040044 | 22 | 137 | 4.8 | 8.0 | 0.00 | 0.00 | 0.00 | 89 | 1009.8 |
| 20260509034541 | 22 | 160 | 4.8 | 9.7 | 0.00 | 0.00 | 0.00 | 89 | 1009.4 |
| 20260509033040 | 22 | 135 | 3.2 | 4.8 | 0.00 | 0.00 | 0.00 | 89 | 1009.4 |
| 20260509031553 | 22 | 135 | 1.6 | 4.8 | 0.00 | 0.00 | 0.00 | 89 | 1009.5 |
| 20260509030040 | 22 | 154 | 0.0 | 1.6 | 0.00 | 0.00 | 0.00 | 88 | 1009.2 |
| 20260509024539 | 22 | 133 | 0.0 | 1.6 | 0.00 | 0.00 | 0.00 | 88 | 1009.0 |
| 20260509023039 | 22 | 129 | 0.0 | 4.8 | 0.00 | 0.00 | 0.00 | 87 | 1008.9 |
| 20260509021539 | 23 | 117 | 0.0 | 3.2 | 0.00 | 0.00 | 0.00 | 86 | 1008.7 |
| 20260509020043 | 23 | 124 | 0.0 | 1.6 | 0.00 | 0.00 | 0.00 | 86 | 1008.6 |
| 20260509014541 | 23 | 126 | 0.0 | 6.4 | 0.00 | 0.00 | 0.00 | 85 | 1008.7 |
| 20260509013037 | 23 | 116 | 0.0 | 1.6 | 0.00 | 0.00 | 0.00 | 84 | 1008.5 |
| 20260509011536 | 23 | 97 | 0.0 | 1.6 | 0.00 | 0.00 | 0.00 | 83 | 1008.4 |
| 20260509010043 | 23 | 135 | 0.0 | 4.8 | 0.00 | 0.00 | 0.00 | 83 | 1008.6 |
| 20260509004535 | 24 | 124 | 0.0 | 4.8 | 0.00 | 0.00 | 0.00 | 82 | 1008.6 |
| 20260509003037 | 24 | 126 | 0.0 | 6.4 | 0.00 | 0.00 | 0.00 | 81 | 1008.4 |
| 20260509001534 | 25 | 124 | 0.0 | 8.0 | 0.00 | 0.00 | 0.00 | 81 | 1008.6 |
| 20260509000033 | 25 | 129 | 4.8 | 9.7 | 0.00 | 0.00 | 0.00 | 80 | 1008.6 |
| 20260508234532 | 25 | 124 | 1.6 | 9.7 | 0.00 | 0.00 | 0.00 | 80 | 1008.6 |
| 20260508233032 | 25 | 135 | 4.8 | 11.3 | 0.00 | 0.00 | 0.00 | 79 | 1008.7 |
| 20260508231531 | 25 | 130 | 6.4 | 12.9 | 0.00 | 0.00 | 0.00 | 78 | 1008.6 |
| 20260508230030 | 25 | 126 | 4.8 | 9.7 | 0.00 | 0.00 | 0.00 | 78 | 1008.6 |